Time;durP1;ratioP1;P1;durP2;ratioP2;P2;SDS_P1;SDS_P2;PMS_P1;PMS_P2;Temp;Humidity;BMP_temperature;BMP_pressure;BME280_temperature;BME280_humidity;BME280_pressure;Samples;Min_cycle;Max_cycle;Signal;HPM_P1;HPM_P2
2022/09/08 00:02:01;;;;;;;7.90;3.05;;;;;;;;;;5040846;28;20059;-68
2022/09/08 00:04:27;;;;;;;9.57;3.00;;;;;;;;;;5038860;28;20036;-68
2022/09/08 00:06:54;;;;;;;6.20;3.15;;;;;;;;;;5023423;28;20135;-69
2022/09/08 00:09:21;;;;;;;12.93;2.92;;;;;;;;;;5035243;28;20506;-69
2022/09/08 00:11:48;;;;;;;6.72;2.42;;;;;;;;;;5040185;28;20033;-69
2022/09/08 00:14:15;;;;;;;6.22;2.70;;;;;;;;;;5040919;28;20063;-69
2022/09/08 00:16:41;;;;;;;9.18;3.20;;;;;;;;;;5039858;28;20059;-69
2022/09/08 00:19:08;;;;;;;12.77;3.63;;;;;;;;;;5053995;28;20054;-68
2022/09/08 00:21:35;;;;;;;11.88;2.90;;;;;;;;;;5043753;28;20140;-67
2022/09/08 00:24:02;;;;;;;14.40;2.80;;;;;;;;;;5026083;28;20115;-67
2022/09/08 00:26:28;;;;;;;11.25;3.17;;;;;;;;;;5029184;28;20423;-67
2022/09/08 00:28:55;;;;;;;7.57;2.40;;;;;;;;;;5028137;28;20032;-67
2022/09/08 00:31:22;;;;;;;11.43;2.95;;;;;;;;;;5038719;28;20095;-68
2022/09/08 00:33:48;;;;;;;11.63;2.72;;;;;;;;;;5040414;28;20037;-67
2022/09/08 00:36:15;;;;;;;11.75;2.88;;;;;;;;;;5040911;28;20041;-67
2022/09/08 00:38:43;;;;;;;16.35;2.72;;;;;;;;;;5032940;28;20143;-67
2022/09/08 00:41:12;;;;;;;11.80;3.05;;;;;;;;;;5033971;28;20041;-65
2022/09/08 00:43:43;;;;;;;11.93;2.97;;;;;;;;;;5033888;28;20063;-67
2022/09/08 00:46:12;;;;;;;11.75;2.85;;;;;;;;;;5044887;28;20056;-67
2022/09/08 00:48:44;;;;;;;5.63;2.10;;;;;;;;;;5042945;28;20394;-66
2022/09/08 00:51:12;;;;;;;8.02;2.13;;;;;;;;;;5043699;28;20059;-66
2022/09/08 00:53:39;;;;;;;12.18;3.10;;;;;;;;;;5022946;28;20037;-67
2022/09/08 00:56:06;;;;;;;8.90;2.78;;;;;;;;;;5045671;28;20065;-67
2022/09/08 00:58:37;;;;;;;11.07;2.08;;;;;;;;;;5041426;28;20454;-66
2022/09/08 01:01:04;;;;;;;8.30;2.40;;;;;;;;;;5043731;28;20048;-67
2022/09/08 01:03:31;;;;;;;8.02;3.13;;;;;;;;;;5043106;28;20592;-66
2022/09/08 01:06:15;;;;;;;8.48;2.20;;;;;;;;;;5043029;28;20140;-66
2022/09/08 01:14:44;;;;;;;14.57;2.78;;;;;;;;;;5041340;28;20040;-67
2022/09/08 01:17:11;;;;;;;6.90;2.70;;;;;;;;;;5033752;28;20041;-66
2022/09/08 01:19:38;;;;;;;7.18;2.72;;;;;;;;;;5052963;28;20037;-66
2022/09/08 01:22:17;;;;;;;6.88;2.67;;;;;;;;;;5031966;28;20033;-65
2022/09/08 01:24:49;;;;;;;8.77;2.20;;;;;;;;;;5035532;28;20032;-67
2022/09/08 01:27:18;;;;;;;;;;;;;;;;;;5045241;28;20044;-67
2022/09/08 01:29:45;;;;;;;9.90;2.50;;;;;;;;;;5026481;28;19956;-67
2022/09/08 01:32:13;;;;;;;7.53;2.50;;;;;;;;;;5037100;28;20044;-68
2022/09/08 01:34:41;;;;;;;11.95;2.67;;;;;;;;;;5035237;28;20044;-68
2022/09/08 01:37:08;;;;;;;9.73;2.63;;;;;;;;;;5031644;28;20397;-68
2022/09/08 01:39:34;;;;;;;7.85;2.75;;;;;;;;;;5040735;28;20037;-69
2022/09/08 01:42:01;;;;;;;9.73;2.70;;;;;;;;;;5042112;28;20040;-68
2022/09/08 01:44:28;;;;;;;5.47;2.20;;;;;;;;;;5044761;28;20079;-70
2022/09/08 01:46:55;;;;;;;9.20;2.25;;;;;;;;;;5043539;28;20120;-68
2022/09/08 01:49:22;;;;;;;7.70;2.40;;;;;;;;;;5039414;28;20056;-68
2022/09/08 01:51:48;;;;;;;5.45;2.47;;;;;;;;;;5040248;28;20044;-68
2022/09/08 01:54:15;;;;;;;10.18;2.30;;;;;;;;;;5031471;28;20041;-69
2022/09/08 01:56:42;;;;;;;7.53;2.63;;;;;;;;;;5032786;28;20048;-69
2022/09/08 01:59:08;;;;;;;5.05;2.20;;;;;;;;;;5043514;28;21042;-69
2022/09/08 02:01:35;;;;;;;7.20;2.60;;;;;;;;;;5042802;28;20088;-69
2022/09/08 02:04:02;;;;;;;7.25;2.38;;;;;;;;;;5042052;28;20055;-68
2022/09/08 02:06:29;;;;;;;9.38;2.90;;;;;;;;;;5042799;28;20935;-68
2022/09/08 02:08:56;;;;;;;8.75;2.38;;;;;;;;;;5042828;28;20773;-68
2022/09/08 02:11:23;;;;;;;13.10;2.63;;;;;;;;;;5043102;28;20041;-68
2022/09/08 02:13:49;;;;;;;14.65;2.75;;;;;;;;;;5043366;28;20129;-68
2022/09/08 02:16:16;;;;;;;6.30;2.53;;;;;;;;;;5042585;28;20086;-68
2022/09/08 02:18:43;;;;;;;10.20;2.90;;;;;;;;;;5041009;28;20045;-68
2022/09/08 02:21:11;;;;;;;9.65;2.88;;;;;;;;;;5043030;28;20033;-68
2022/09/08 02:23:39;;;;;;;7.28;2.75;;;;;;;;;;5040606;28;20040;-68
2022/09/08 02:26:06;;;;;;;12.30;2.70;;;;;;;;;;5041455;28;20144;-68
2022/09/08 02:28:33;;;;;;;7.20;2.38;;;;;;;;;;5021788;28;20033;-68
2022/09/08 02:31:01;;;;;;;8.60;2.50;;;;;;;;;;5020181;28;20057;-68
2022/09/08 02:33:28;;;;;;;9.88;3.00;;;;;;;;;;5020617;28;20394;-68
2022/09/08 02:35:55;;;;;;;7.50;2.38;;;;;;;;;;5033697;28;20052;-68
2022/09/08 02:38:22;;;;;;;7.40;2.42;;;;;;;;;;5037887;28;20040;-68
2022/09/08 02:40:49;;;;;;;11.90;2.50;;;;;;;;;;5037824;28;20556;-68
2022/09/08 02:43:16;;;;;;;10.98;2.67;;;;;;;;;;5039202;28;20079;-68
2022/09/08 02:45:43;;;;;;;9.40;3.17;;;;;;;;;;5039340;28;20611;-67
2022/09/08 02:48:10;;;;;;;5.53;2.53;;;;;;;;;;5038600;28;20041;-67
2022/09/08 02:50:38;;;;;;;6.10;2.42;;;;;;;;;;5038624;28;20140;-68
2022/09/08 02:53:04;;;;;;;5.15;2.30;;;;;;;;;;5038530;28;20052;-67
2022/09/08 02:55:36;;;;;;;10.23;2.88;;;;;;;;;;5039298;28;20060;-68
2022/09/08 02:58:02;;;;;;;10.82;2.72;;;;;;;;;;5051813;28;20056;-67
2022/09/08 03:00:32;;;;;;;7.32;2.80;;;;;;;;;;5028451;28;20048;-68
2022/09/08 03:02:58;;;;;;;12.18;2.50;;;;;;;;;;5036079;28;20722;-68
2022/09/08 03:05:28;;;;;;;8.77;2.47;;;;;;;;;;5035893;28;20047;-68
2022/09/08 03:07:55;;;;;;;7.93;3.03;;;;;;;;;;5032181;28;20035;-68
2022/09/08 03:10:23;;;;;;;18.52;2.72;;;;;;;;;;5038525;28;20053;-67
2022/09/08 03:12:53;;;;;;;6.20;2.33;;;;;;;;;;5039006;28;20025;-68
2022/09/08 03:15:20;;;;;;;8.75;2.53;;;;;;;;;;5038716;28;20044;-68
2022/09/08 03:17:47;;;;;;;9.85;3.20;;;;;;;;;;5019172;28;20049;-68
2022/09/08 03:20:14;;;;;;;10.18;2.80;;;;;;;;;;5027835;28;20425;-68
2022/09/08 03:22:41;;;;;;;9.48;2.60;;;;;;;;;;5022040;28;20034;-68
2022/09/08 03:25:07;;;;;;;10.52;2.85;;;;;;;;;;5039436;28;20047;-68
2022/09/08 03:27:34;;;;;;;8.13;2.95;;;;;;;;;;5036422;28;20045;-66
2022/09/08 03:30:02;;;;;;;13.38;2.60;;;;;;;;;;5038502;28;20449;-64
2022/09/08 03:32:28;;;;;;;8.65;2.72;;;;;;;;;;5051012;28;20436;-66
2022/09/08 03:34:55;;;;;;;9.93;2.50;;;;;;;;;;5036199;28;21840;-67
2022/09/08 03:37:21;;;;;;;7.80;2.35;;;;;;;;;;5022525;28;20052;-68
2022/09/08 03:39:48;;;;;;;5.60;1.95;;;;;;;;;;5020905;28;20120;-67
2022/09/08 03:42:17;;;;;;;6.35;2.65;;;;;;;;;;5034552;28;20659;-67
2022/09/08 03:44:44;;;;;;;9.93;2.65;;;;;;;;;;5036907;28;20144;-68
2022/09/08 03:47:11;;;;;;;8.98;2.85;;;;;;;;;;5038473;28;20068;-68
2022/09/08 03:49:38;;;;;;;12.23;3.33;;;;;;;;;;5029131;28;20072;-67
2022/09/08 03:52:05;;;;;;;10.23;3.28;;;;;;;;;;5038618;28;20029;-67
2022/09/08 03:54:51;;;;;;;9.95;3.40;;;;;;;;;;5038433;28;20053;-66
2022/09/08 03:57:21;;;;;;;9.80;3.15;;;;;;;;;;5039200;28;20051;-66
2022/09/08 03:59:49;;;;;;;10.40;3.15;;;;;;;;;;5040575;28;20541;-67
2022/09/08 04:02:17;;;;;;;13.88;3.83;;;;;;;;;;5041675;28;20469;-66
2022/09/08 04:04:43;;;;;;;9.98;3.53;;;;;;;;;;5021496;28;20132;-67
2022/09/08 04:07:11;;;;;;;10.50;3.03;;;;;;;;;;5028514;28;20096;-67
2022/09/08 04:09:38;;;;;;;10.27;2.85;;;;;;;;;;5056224;28;20107;-67
2022/09/08 04:12:05;;;;;;;14.75;3.05;;;;;;;;;;5038637;28;20033;-66
2022/09/08 04:14:33;;;;;;;9.10;2.75;;;;;;;;;;5023070;28;20145;-67
2022/09/08 04:17:00;;;;;;;8.25;2.85;;;;;;;;;;5028704;28;20048;-66
2022/09/08 04:19:26;;;;;;;11.77;2.80;;;;;;;;;;5042351;28;20044;-68
2022/09/08 04:21:53;;;;;;;8.88;2.70;;;;;;;;;;5045264;28;20516;-67
2022/09/08 04:24:20;;;;;;;8.55;2.83;;;;;;;;;;5045037;28;20048;-68
2022/09/08 04:26:47;;;;;;;9.15;2.28;;;;;;;;;;5025221;28;20478;-67
2022/09/08 04:29:14;;;;;;;11.75;2.67;;;;;;;;;;5034996;28;20049;-67
2022/09/08 04:31:40;;;;;;;12.27;1.92;;;;;;;;;;5040348;28;21778;-67
2022/09/08 04:34:07;;;;;;;7.50;1.83;;;;;;;;;;5042453;28;20033;-67
2022/09/08 04:36:34;;;;;;;10.27;2.30;;;;;;;;;;5041853;28;20045;-67
2022/09/08 04:39:01;;;;;;;5.28;1.77;;;;;;;;;;5043023;28;20086;-67
2022/09/08 04:41:28;;;;;;;14.48;2.35;;;;;;;;;;5042660;28;20041;-68
2022/09/08 04:43:56;;;;;;;6.78;1.67;;;;;;;;;;5031985;28;20481;-66
2022/09/08 04:46:22;;;;;;;7.88;1.60;;;;;;;;;;5049128;28;21424;-68
2022/09/08 04:48:49;;;;;;;6.28;1.77;;;;;;;;;;5046192;28;20033;-67
2022/09/08 04:51:17;;;;;;;4.90;1.60;;;;;;;;;;5029508;28;20160;-67
2022/09/08 04:53:44;;;;;;;10.45;2.17;;;;;;;;;;5046279;28;20465;-68
2022/09/08 04:56:11;;;;;;;7.75;1.58;;;;;;;;;;5043483;28;20047;-68
2022/09/08 04:58:39;;;;;;;7.43;1.50;;;;;;;;;;5045031;28;20083;-68
2022/09/08 05:01:10;;;;;;;5.13;1.40;;;;;;;;;;5045104;28;20049;-68
2022/09/08 05:03:37;;;;;;;6.10;2.03;;;;;;;;;;5043536;28;20516;-67
2022/09/08 05:06:04;;;;;;;7.40;1.67;;;;;;;;;;5039850;28;20569;-67
2022/09/08 05:08:31;;;;;;;6.38;1.40;;;;;;;;;;5021677;28;20052;-67
2022/09/08 05:10:58;;;;;;;11.68;1.70;;;;;;;;;;5034458;28;20220;-68
2022/09/08 05:13:25;;;;;;;7.13;1.73;;;;;;;;;;5032809;28;20069;-67
2022/09/08 05:15:51;;;;;;;8.00;1.55;;;;;;;;;;5035988;28;20147;-67
2022/09/08 05:18:18;;;;;;;13.15;1.80;;;;;;;;;;5033666;28;20072;-67
2022/09/08 05:20:53;;;;;;;13.02;2.08;;;;;;;;;;5025242;28;20124;-67
2022/09/08 05:23:20;;;;;;;6.25;1.55;;;;;;;;;;5038489;28;20037;-67
2022/09/08 05:25:47;;;;;;;13.95;1.60;;;;;;;;;;5040243;28;20067;-66
2022/09/08 05:28:14;;;;;;;6.20;1.50;;;;;;;;;;5040538;28;20123;-66
2022/09/08 05:30:41;;;;;;;8.27;2.08;;;;;;;;;;5039721;28;20076;-66
2022/09/08 05:33:08;;;;;;;6.15;1.48;;;;;;;;;;5041261;28;20041;-66
2022/09/08 05:35:36;;;;;;;8.98;1.42;;;;;;;;;;5050227;28;20080;-66
2022/09/08 05:38:03;;;;;;;4.68;1.20;;;;;;;;;;5035877;28;20048;-66
2022/09/08 05:40:29;;;;;;;3.78;1.40;;;;;;;;;;5030934;28;20048;-66
2022/09/08 05:42:56;;;;;;;3.38;1.20;;;;;;;;;;5025756;28;20450;-66
2022/09/08 05:45:22;;;;;;;6.25;1.60;;;;;;;;;;5030997;28;20037;-66
2022/09/08 05:47:49;;;;;;;6.72;1.20;;;;;;;;;;5040096;28;20051;-66
2022/09/08 05:50:15;;;;;;;3.38;1.05;;;;;;;;;;5041071;28;20045;-66
2022/09/08 05:52:42;;;;;;;3.40;1.13;;;;;;;;;;5040999;28;20053;-66
2022/09/08 05:55:09;;;;;;;5.65;1.20;;;;;;;;;;5040955;28;20033;-66
2022/09/08 05:57:35;;;;;;;5.40;1.25;;;;;;;;;;5038703;28;20519;-67
2022/09/08 06:00:03;;;;;;;6.88;1.23;;;;;;;;;;5039410;28;20082;-67
2022/09/08 06:02:30;;;;;;;5.13;1.25;;;;;;;;;;5039067;28;20043;-66
2022/09/08 06:04:56;;;;;;;8.40;1.58;;;;;;;;;;5021611;28;20037;-67
2022/09/08 06:07:23;;;;;;;9.73;1.33;;;;;;;;;;5034042;28;20042;-66
2022/09/08 06:09:49;;;;;;;5.05;1.30;;;;;;;;;;5024870;28;20083;-67
2022/09/08 06:12:16;;;;;;;6.95;1.40;;;;;;;;;;5039752;28;20041;-67
2022/09/08 06:14:42;;;;;;;9.07;1.25;;;;;;;;;;5021848;28;20052;-67
2022/09/08 06:17:09;;;;;;;5.07;1.40;;;;;;;;;;5022234;28;20129;-68
2022/09/08 06:19:36;;;;;;;5.90;1.27;;;;;;;;;;5021490;28;20044;-67
2022/09/08 06:22:03;;;;;;;5.53;1.40;;;;;;;;;;5034734;28;20041;-67
2022/09/08 06:24:29;;;;;;;8.30;1.38;;;;;;;;;;5038232;28;20493;-67
2022/09/08 06:26:59;;;;;;;9.98;1.58;;;;;;;;;;5039180;28;22557;-67
2022/09/08 06:29:25;;;;;;;7.38;1.58;;;;;;;;;;5038513;28;20072;-67
2022/09/08 06:32:10;;;;;;;3.88;1.40;;;;;;;;;;5038583;28;20041;-67
2022/09/08 06:34:40;;;;;;;9.07;1.40;;;;;;;;;;5038543;28;20148;-68
2022/09/08 06:37:09;;;;;;;5.75;1.38;;;;;;;;;;5038515;28;20041;-67
2022/09/08 06:39:47;;;;;;;8.90;1.42;;;;;;;;;;5038697;28;20037;-67
2022/09/08 06:42:17;;;;;;;11.30;1.60;;;;;;;;;;5039516;28;20932;-67
2022/09/08 06:44:45;;;;;;;7.10;1.40;;;;;;;;;;5015410;28;20075;-67
2022/09/08 06:47:17;;;;;;;4.88;1.40;;;;;;;;;;5021673;28;20041;-67
2022/09/08 06:49:44;;;;;;;11.73;1.60;;;;;;;;;;5023951;28;20060;-66
2022/09/08 06:52:46;;;;;;;6.47;1.38;;;;;;;;;;5038535;28;20033;-67
2022/09/08 06:55:31;;;;;;;6.28;1.08;;;;;;;;;;4964601;28;20087;-67
2022/09/08 06:57:57;;;;;;;6.78;1.77;;;;;;;;;;5016942;28;20552;-68
2022/09/08 07:00:25;;;;;;;12.10;1.60;;;;;;;;;;5021750;28;20051;-68
2022/09/08 07:03:09;;;;;;;5.97;1.35;;;;;;;;;;5023108;28;20044;-67
2022/09/08 07:05:58;;;;;;;3.40;1.20;;;;;;;;;;5030683;28;20640;-67
2022/09/08 07:08:24;;;;;;;8.43;1.38;;;;;;;;;;5038469;28;20047;-66
2022/09/08 07:11:00;;;;;;;6.97;1.42;;;;;;;;;;5038841;28;20321;-66
2022/09/08 07:13:26;;;;;;;4.07;1.17;;;;;;;;;;5030732;28;20045;-66
2022/09/08 07:15:56;;;;;;;13.63;1.48;;;;;;;;;;5039304;28;20131;-66
2022/09/08 07:18:40;;;;;;;3.83;1.35;;;;;;;;;;5038419;28;20596;-66
2022/09/08 07:21:15;;;;;;;4.45;1.20;;;;;;;;;;5039589;28;20282;-66
2022/09/08 07:23:43;;;;;;;4.18;1.58;;;;;;;;;;5038911;28;20642;-66
2022/09/08 07:26:17;;;;;;;9.70;1.90;;;;;;;;;;5038780;28;20444;-66
2022/09/08 07:28:46;;;;;;;5.07;1.25;;;;;;;;;;5038671;28;20465;-66
2022/09/08 07:31:20;;;;;;;4.15;1.40;;;;;;;;;;5040310;28;20057;-67
2022/09/08 07:33:49;;;;;;;9.70;1.77;;;;;;;;;;5035274;28;20524;-67
2022/09/08 07:36:39;;;;;;;9.02;1.63;;;;;;;;;;5026308;28;20041;-67
2022/09/08 07:39:32;;;;;;;7.38;1.42;;;;;;;;;;5023907;28;20052;-67
2022/09/08 07:42:02;;;;;;;4.82;1.30;;;;;;;;;;5002899;28;20048;-66
2022/09/08 07:44:28;;;;;;;3.65;1.38;;;;;;;;;;5038878;28;20049;-66
2022/09/08 07:47:15;;;;;;;3.20;1.20;;;;;;;;;;5038708;28;20741;-67
2022/09/08 07:49:44;;;;;;;3.40;1.20;;;;;;;;;;5037804;28;20051;-67
2022/09/08 07:52:18;;;;;;;5.45;1.23;;;;;;;;;;5038589;28;20068;-67
2022/09/08 07:54:48;;;;;;;4.97;1.52;;;;;;;;;;5031958;28;20056;-67
2022/09/08 07:57:19;;;;;;;6.82;1.30;;;;;;;;;;5036956;28;20033;-67
2022/09/08 07:59:55;;;;;;;7.18;1.23;;;;;;;;;;5028018;28;20522;-67
2022/09/08 08:02:34;;;;;;;3.65;1.17;;;;;;;;;;5010933;28;20044;-67
2022/09/08 08:05:15;;;;;;;6.40;1.63;;;;;;;;;;5018152;28;20045;-66
2022/09/08 08:07:51;;;;;;;3.60;1.15;;;;;;;;;;5016687;28;20052;-66
2022/09/08 08:10:26;;;;;;;5.47;1.40;;;;;;;;;;5017558;28;20506;-67
2022/09/08 08:13:11;;;;;;;5.75;1.10;;;;;;;;;;5024311;28;20128;-67
2022/09/08 08:16:00;;;;;;;5.38;1.25;;;;;;;;;;5049152;28;20049;-67
2022/09/08 08:18:27;;;;;;;3.40;1.17;;;;;;;;;;5033070;28;20363;-67
2022/09/08 08:20:56;;;;;;;4.18;1.20;;;;;;;;;;5041822;28;20437;-66
2022/09/08 08:23:26;;;;;;;5.15;1.00;;;;;;;;;;5023745;28;20457;-66
2022/09/08 08:26:12;;;;;;;5.10;1.35;;;;;;;;;;5024864;28;20402;-67
2022/09/08 08:28:45;;;;;;;4.35;1.38;;;;;;;;;;5037691;28;20049;-67
2022/09/08 08:31:29;;;;;;;4.45;1.40;;;;;;;;;;5038353;28;20421;-67
2022/09/08 08:34:01;;;;;;;4.65;1.33;;;;;;;;;;5026345;28;20045;-67
2022/09/08 08:36:30;;;;;;;4.97;1.55;;;;;;;;;;5035371;28;20405;-67
2022/09/08 08:39:06;;;;;;;4.70;1.20;;;;;;;;;;5037774;28;21474;-67
2022/09/08 08:41:51;;;;;;;3.45;1.30;;;;;;;;;;5037052;28;20061;-67
2022/09/08 08:44:24;;;;;;;4.15;1.35;;;;;;;;;;5037753;28;20398;-67
2022/09/08 08:46:56;;;;;;;3.45;1.13;;;;;;;;;;5577208;22;21202;31
2022/09/08 08:49:40;;;;;;;4.28;1.38;;;;;;;;;;5017028;23;20046;-69
2022/09/08 08:52:13;;;;;;;4.60;1.23;;;;;;;;;;4992627;28;20375;-68
2022/09/08 08:54:40;;;;;;;3.83;1.30;;;;;;;;;;4976199;28;20090;-68
2022/09/08 08:57:15;;;;;;;7.40;1.33;;;;;;;;;;4978165;28;20042;-68
2022/09/08 08:59:42;;;;;;;7.75;1.50;;;;;;;;;;4975651;28;20118;-68
2022/09/08 09:02:08;;;;;;;3.42;1.20;;;;;;;;;;4977070;28;20043;-69
2022/09/08 09:07:22;;;;;;;6.13;1.40;;;;;;;;;;4401897;22;20514;-68
2022/09/08 09:09:54;;;;;;;8.93;1.42;;;;;;;;;;4960947;28;20054;-68
2022/09/08 09:12:36;;;;;;;3.97;1.30;;;;;;;;;;4957535;28;20036;-68
2022/09/08 09:15:27;;;;;;;6.65;1.50;;;;;;;;;;4958205;28;20047;-67
2022/09/08 09:18:17;;;;;;;4.35;1.33;;;;;;;;;;4954726;28;20349;-68
2022/09/08 09:20:51;;;;;;;4.45;1.25;;;;;;;;;;4963864;28;20051;-67
2022/09/08 09:23:26;;;;;;;3.95;1.30;;;;;;;;;;4962159;28;20546;-68
2022/09/08 09:26:00;;;;;;;3.35;1.20;;;;;;;;;;4961558;28;20054;-68
2022/09/08 09:28:33;;;;;;;3.50;1.02;;;;;;;;;;4961589;28;20054;-67
2022/09/08 09:31:08;;;;;;;5.97;1.30;;;;;;;;;;4949636;28;20416;-69
2022/09/08 09:33:53;;;;;;;3.60;1.20;;;;;;;;;;4960420;28;20391;-67
2022/09/08 09:36:43;;;;;;;4.38;1.27;;;;;;;;;;4961111;28;20047;-68
2022/09/08 09:39:14;;;;;;;3.80;1.10;;;;;;;;;;4960709;28;20596;-68
2022/09/08 09:41:46;;;;;;;3.10;1.00;;;;;;;;;;4962482;28;20039;-68
2022/09/08 09:44:24;;;;;;;3.20;0.90;;;;;;;;;;4962690;28;20046;-68
2022/09/08 09:47:04;;;;;;;3.88;1.10;;;;;;;;;;4961282;28;20043;-68
2022/09/08 09:49:50;;;;;;;7.63;1.20;;;;;;;;;;4960806;28;20495;-69
2022/09/08 09:52:35;;;;;;;3.10;0.90;;;;;;;;;;4962093;28;20439;-69
2022/09/08 09:55:15;;;;;;;3.80;0.90;;;;;;;;;;4955311;28;20058;-68
2022/09/08 09:58:11;;;;;;;6.22;1.05;;;;;;;;;;4953566;28;20179;-67
2022/09/08 10:01:13;;;;;;;4.38;1.13;;;;;;;;;;4961434;28;20042;-67
2022/09/08 10:03:58;;;;;;;4.03;1.00;;;;;;;;;;4925460;29;20044;-68
2022/09/08 10:06:50;;;;;;;3.75;1.20;;;;;;;;;;4957058;28;20476;-67
2022/09/08 10:09:28;;;;;;;2.70;1.00;;;;;;;;;;4962184;28;20042;-67
2022/09/08 10:12:13;;;;;;;5.65;1.10;;;;;;;;;;4963454;28;20388;-68
2022/09/08 10:14:46;;;;;;;3.90;0.95;;;;;;;;;;4960728;28;20042;-68
2022/09/08 10:17:31;;;;;;;9.38;1.27;;;;;;;;;;4955088;28;20462;-69
2022/09/08 10:20:18;;;;;;;3.88;1.17;;;;;;;;;;4961647;28;20174;-68
2022/09/08 10:22:45;;;;;;;5.80;1.35;;;;;;;;;;4974686;28;20611;-68
2022/09/08 10:25:11;;;;;;;2.67;0.95;;;;;;;;;;4967386;28;20508;-67
2022/09/08 10:27:48;;;;;;;3.38;1.00;;;;;;;;;;4955271;28;20039;-69
2022/09/08 10:30:20;;;;;;;3.53;1.17;;;;;;;;;;4954913;28;20105;-68
2022/09/08 10:32:59;;;;;;;2.78;1.00;;;;;;;;;;4961063;28;20043;-68
2022/09/08 10:35:25;;;;;;;3.30;1.00;;;;;;;;;;4969106;28;20050;-68
2022/09/08 10:38:10;;;;;;;4.25;1.13;;;;;;;;;;4962868;28;20134;-69
2022/09/08 10:40:58;;;;;;;2.70;0.82;;;;;;;;;;4980271;28;20082;-69
2022/09/08 10:43:28;;;;;;;3.83;1.00;;;;;;;;;;4977871;28;20035;-68
2022/09/08 10:45:57;;;;;;;3.05;0.88;;;;;;;;;;4963893;28;20192;-69
2022/09/08 10:48:30;;;;;;;2.42;0.75;;;;;;;;;;4964329;28;20042;-69
2022/09/08 10:51:09;;;;;;;3.20;0.90;;;;;;;;;;4966035;28;20051;-70
2022/09/08 10:53:54;;;;;;;5.90;0.90;;;;;;;;;;4966444;28;20111;-69
2022/09/08 10:56:26;;;;;;;2.92;1.00;;;;;;;;;;4964880;28;20049;-69
2022/09/08 10:59:11;;;;;;;3.72;0.82;;;;;;;;;;4973631;28;20475;-68
2022/09/08 11:01:43;;;;;;;6.38;0.90;;;;;;;;;;4953958;28;20057;-68
2022/09/08 11:04:36;;;;;;;4.27;0.93;;;;;;;;;;4963787;28;20260;-67
2022/09/08 11:07:21;;;;;;;6.70;1.20;;;;;;;;;;4959574;28;20058;-69
2022/09/08 11:09:56;;;;;;;2.90;0.85;;;;;;;;;;4959769;28;20141;-68
2022/09/08 11:12:29;;;;;;;2.58;0.90;;;;;;;;;;4951512;28;20086;-69
2022/09/08 11:15:13;;;;;;;4.90;0.95;;;;;;;;;;4963791;28;20038;-67
2022/09/08 11:17:46;;;;;;;3.65;1.00;;;;;;;;;;4955184;28;20373;-68
2022/09/08 11:20:21;;;;;;;3.13;0.90;;;;;;;;;;4948453;28;20124;-69
2022/09/08 11:23:06;;;;;;;2.33;0.73;;;;;;;;;;4966373;28;20093;-65
2022/09/08 11:25:52;;;;;;;2.55;0.80;;;;;;;;;;4954894;28;20043;-65
2022/09/08 11:28:27;;;;;;;2.00;0.60;;;;;;;;;;4956733;28;20428;-66
2022/09/08 11:31:01;;;;;;;3.85;1.08;;;;;;;;;;4970397;28;20043;-66
2022/09/08 11:33:44;;;;;;;3.08;0.93;;;;;;;;;;4952474;28;20082;-67
2022/09/08 11:36:37;;;;;;;2.30;0.60;;;;;;;;;;4958244;28;20121;-67
2022/09/08 11:39:16;;;;;;;2.35;0.80;;;;;;;;;;4941973;28;20051;-67
2022/09/08 11:42:28;;;;;;;2.70;0.85;;;;;;;;;;4930236;28;20051;-67
2022/09/08 11:45:27;;;;;;;2.45;0.80;;;;;;;;;;4898497;28;20049;-67
2022/09/08 11:48:00;;;;;;;2.38;0.75;;;;;;;;;;4868952;29;22045;-69
2022/09/08 11:50:38;;;;;;;2.30;0.73;;;;;;;;;;4920465;29;20530;-65
2022/09/08 11:53:11;;;;;;;7.80;0.88;;;;;;;;;;4923260;29;20496;-66
2022/09/08 11:55:56;;;;;;;3.55;0.95;;;;;;;;;;4939096;28;20562;-67
2022/09/08 11:58:40;;;;;;;3.38;0.98;;;;;;;;;;4933808;28;20046;-66
2022/09/08 12:01:19;;;;;;;6.85;1.02;;;;;;;;;;4942020;28;20051;-66
2022/09/08 12:03:57;;;;;;;2.70;0.70;;;;;;;;;;4939439;28;20050;-65
2022/09/08 12:06:27;;;;;;;2.72;0.82;;;;;;;;;;4938537;28;20047;-69
2022/09/08 12:09:12;;;;;;;1.83;0.60;;;;;;;;;;4921066;29;20138;-69
2022/09/08 12:11:56;;;;;;;3.08;0.90;;;;;;;;;;4920824;29;20146;-69
2022/09/08 12:14:29;;;;;;;2.55;0.75;;;;;;;;;;4958425;28;20047;-70
2022/09/08 12:17:05;;;;;;;3.60;0.80;;;;;;;;;;4959188;28;20055;-70
2022/09/08 12:19:58;;;;;;;2.08;0.75;;;;;;;;;;4959411;28;20110;-71
2022/09/08 12:22:24;;;;;;;2.00;0.70;;;;;;;;;;4925528;28;20039;-69
2022/09/08 12:24:51;;;;;;;3.20;0.90;;;;;;;;;;4950141;28;20039;-69
2022/09/08 12:27:17;;;;;;;2.65;0.80;;;;;;;;;;4959965;28;20054;-66
2022/09/08 12:29:53;;;;;;;2.20;0.70;;;;;;;;;;4963546;28;20065;-70
2022/09/08 12:32:26;;;;;;;2.60;0.90;;;;;;;;;;4948050;28;20035;-69
2022/09/08 12:35:12;;;;;;;4.72;0.93;;;;;;;;;;4962732;28;20149;-69
2022/09/08 12:37:39;;;;;;;2.80;0.70;;;;;;;;;;4960137;28;20086;-69
2022/09/08 12:40:21;;;;;;;1.98;0.70;;;;;;;;;;4963626;28;20154;-66
2022/09/08 12:43:03;;;;;;;2.58;0.88;;;;;;;;;;4963323;28;20043;-64
2022/09/08 12:45:42;;;;;;;5.13;0.90;;;;;;;;;;4962449;28;20470;-70
2022/09/08 12:48:20;;;;;;;3.85;0.88;;;;;;;;;;4962505;28;20046;-69
2022/09/08 12:51:10;;;;;;;3.13;0.80;;;;;;;;;;4962655;28;20043;-66
2022/09/08 12:53:36;;;;;;;2.42;0.80;;;;;;;;;;4943761;28;20622;-67
2022/09/08 12:56:25;;;;;;;3.90;0.80;;;;;;;;;;4951477;28;20061;-66
2022/09/08 12:58:55;;;;;;;2.75;0.80;;;;;;;;;;4953245;28;20602;-66
2022/09/08 13:01:44;;;;;;;2.80;0.65;;;;;;;;;;4940527;28;20039;-66
2022/09/08 13:04:26;;;;;;;2.53;0.80;;;;;;;;;;4931755;28;20102;-66
2022/09/08 13:07:02;;;;;;;2.22;0.70;;;;;;;;;;4963618;28;20051;-64
2022/09/08 13:09:32;;;;;;;3.75;0.90;;;;;;;;;;4953384;28;20105;-65
2022/09/08 13:12:11;;;;;;;2.17;0.70;;;;;;;;;;4956869;28;20041;-65
2022/09/08 13:14:47;;;;;;;3.50;1.00;;;;;;;;;;4956324;28;20068;-65
2022/09/08 13:17:19;;;;;;;5.13;1.17;;;;;;;;;;4952397;28;20054;-64
2022/09/08 13:20:04;;;;;;;6.05;1.20;;;;;;;;;;4962604;28;20050;-65
2022/09/08 13:22:44;;;;;;;5.15;1.05;;;;;;;;;;4959194;28;20583;-65
2022/09/08 13:25:20;;;;;;;2.95;0.90;;;;;;;;;;4960029;28;20780;-66
2022/09/08 13:27:55;;;;;;;3.20;0.85;;;;;;;;;;4959403;28;20555;-65
2022/09/08 13:30:38;;;;;;;2.35;0.80;;;;;;;;;;4959177;28;20055;-65
2022/09/08 13:33:16;;;;;;;3.65;0.82;;;;;;;;;;4959549;28;20043;-66
2022/09/08 13:35:42;;;;;;;4.00;1.00;;;;;;;;;;4965906;28;20108;-68
2022/09/08 13:38:15;;;;;;;4.38;1.00;;;;;;;;;;4963539;28;20042;-68
2022/09/08 13:40:55;;;;;;;4.60;1.00;;;;;;;;;;4965438;28;20042;-69
2022/09/08 13:43:40;;;;;;;3.20;0.80;;;;;;;;;;4965481;28;20053;-68
2022/09/08 13:46:39;;;;;;;4.55;1.00;;;;;;;;;;4964780;28;20535;-69
2022/09/08 13:49:06;;;;;;;3.95;1.00;;;;;;;;;;4922363;28;20462;-69
2022/09/08 13:51:42;;;;;;;3.20;1.05;;;;;;;;;;4954103;28;20047;-68
2022/09/08 13:54:27;;;;;;;5.20;0.90;;;;;;;;;;4960865;28;20067;-69
2022/09/08 13:56:58;;;;;;;5.78;0.82;;;;;;;;;;4977645;28;20038;-68
2022/09/08 13:59:44;;;;;;;4.45;0.98;;;;;;;;;;4954253;28;20047;-68
2022/09/08 14:02:21;;;;;;;4.70;1.20;;;;;;;;;;4960091;28;20046;-69
2022/09/08 14:04:57;;;;;;;2.63;0.82;;;;;;;;;;4942373;28;20047;-68
2022/09/08 14:07:27;;;;;;;4.85;1.20;;;;;;;;;;4950024;28;20114;-69
2022/09/08 14:10:13;;;;;;;6.03;0.82;;;;;;;;;;4972546;28;20058;-68
2022/09/08 14:12:49;;;;;;;5.60;1.20;;;;;;;;;;4948102;28;20460;-69
2022/09/08 14:15:21;;;;;;;4.05;0.95;;;;;;;;;;4957286;28;20043;-68
2022/09/08 14:18:00;;;;;;;3.95;1.08;;;;;;;;;;4953286;28;20520;-68
2022/09/08 14:20:35;;;;;;;8.30;1.08;;;;;;;;;;4941493;28;20047;-68
2022/09/08 14:23:14;;;;;;;3.88;1.08;;;;;;;;;;4942025;28;20538;-68
2022/09/08 14:25:41;;;;;;;5.35;1.08;;;;;;;;;;4947088;28;20080;-68
2022/09/08 14:28:16;;;;;;;4.70;1.35;;;;;;;;;;4947918;28;20496;-68
2022/09/08 14:30:52;;;;;;;3.50;0.80;;;;;;;;;;4969488;28;20042;-69
2022/09/08 14:33:30;;;;;;;3.97;1.00;;;;;;;;;;4969586;28;20039;-69
2022/09/08 14:36:15;;;;;;;7.53;0.80;;;;;;;;;;4955190;28;20771;-69
2022/09/08 14:38:42;;;;;;;4.30;0.95;;;;;;;;;;4959048;28;20054;-69
2022/09/08 14:41:17;;;;;;;3.03;0.90;;;;;;;;;;4946002;28;20137;-69
2022/09/08 14:43:47;;;;;;;1.85;0.50;;;;;;;;;;4944996;28;20069;-69
2022/09/08 14:46:21;;;;;;;4.55;0.90;;;;;;;;;;4947217;28;20039;-68
2022/09/08 14:49:04;;;;;;;2.13;0.70;;;;;;;;;;4956670;28;20584;-69
2022/09/08 14:51:39;;;;;;;4.53;0.70;;;;;;;;;;4956143;28;20565;-67
2022/09/08 14:54:14;;;;;;;4.30;0.95;;;;;;;;;;4956055;28;20122;-69
2022/09/08 14:56:42;;;;;;;2.42;0.80;;;;;;;;;;4958541;28;20066;-69
2022/09/08 14:59:27;;;;;;;5.47;0.95;;;;;;;;;;4941308;28;20035;-68
2022/09/08 15:02:00;;;;;;;6.47;1.52;;;;;;;;;;4962865;28;20073;-69
2022/09/08 15:04:35;;;;;;;3.53;0.93;;;;;;;;;;4944833;28;20055;-68
2022/09/08 15:07:23;;;;;;;4.40;0.98;;;;;;;;;;4958113;28;20051;-68
2022/09/08 15:09:53;;;;;;;4.03;1.20;;;;;;;;;;4952093;28;20082;-68
2022/09/08 15:12:26;;;;;;;6.63;1.45;;;;;;;;;;4953003;28;20046;-69
2022/09/08 15:15:15;;;;;;;4.78;1.30;;;;;;;;;;4955552;28;20038;-68
2022/09/08 15:18:08;;;;;;;7.45;1.20;;;;;;;;;;4954390;28;20047;-68
2022/09/08 15:20:36;;;;;;;3.60;1.13;;;;;;;;;;4953096;28;20586;-68
2022/09/08 15:23:20;;;;;;;5.85;1.10;;;;;;;;;;4955487;28;20093;-70
2022/09/08 15:25:53;;;;;;;5.43;0.90;;;;;;;;;;4954668;28;20454;-67